sensor_id;sensor_type;location;lat;lon;timestamp;temperature;humidity
15257;DHT22;7731;50.720;6.912;2023-06-22T00:02:00;21.70;99.90
15257;DHT22;7731;50.720;6.912;2023-06-22T00:04:30;21.70;99.90
15257;DHT22;7731;50.720;6.912;2023-06-22T00:07:01;21.80;99.90
15257;DHT22;7731;50.720;6.912;2023-06-22T00:09:31;21.80;99.90
15257;DHT22;7731;50.720;6.912;2023-06-22T00:12:02;21.80;99.90
15257;DHT22;7731;50.720;6.912;2023-06-22T00:14:51;21.80;99.90
15257;DHT22;7731;50.720;6.912;2023-06-22T00:17:28;21.70;99.90
15257;DHT22;7731;50.720;6.912;2023-06-22T00:20:01;21.70;99.90
15257;DHT22;7731;50.720;6.912;2023-06-22T00:22:36;21.60;99.90
15257;DHT22;7731;50.720;6.912;2023-06-22T00:25:07;21.70;99.90
15257;DHT22;7731;50.720;6.912;2023-06-22T00:27:38;21.70;99.90
15257;DHT22;7731;50.720;6.912;2023-06-22T00:30:21;21.80;99.90
15257;DHT22;7731;50.720;6.912;2023-06-22T00:32:52;21.80;99.90
15257;DHT22;7731;50.720;6.912;2023-06-22T00:35:26;21.80;99.90
15257;DHT22;7731;50.720;6.912;2023-06-22T00:37:57;21.70;99.90
15257;DHT22;7731;50.720;6.912;2023-06-22T00:40:30;21.70;99.90
15257;DHT22;7731;50.720;6.912;2023-06-22T00:43:02;21.70;99.90
15257;DHT22;7731;50.720;6.912;2023-06-22T00:45:35;21.60;99.90
15257;DHT22;7731;50.720;6.912;2023-06-22T00:48:12;21.50;99.90
15257;DHT22;7731;50.720;6.912;2023-06-22T00:50:43;21.50;99.90
15257;DHT22;7731;50.720;6.912;2023-06-22T00:53:15;21.40;99.90
15257;DHT22;7731;50.720;6.912;2023-06-22T00:55:46;21.40;99.90
15257;DHT22;7731;50.720;6.912;2023-06-22T00:58:19;21.60;99.90
15257;DHT22;7731;50.720;6.912;2023-06-22T01:01:09;21.70;99.90
15257;DHT22;7731;50.720;6.912;2023-06-22T01:03:41;21.60;99.90
15257;DHT22;7731;50.720;6.912;2023-06-22T01:06:16;21.50;99.90
15257;DHT22;7731;50.720;6.912;2023-06-22T01:09:00;21.60;99.90
15257;DHT22;7731;50.720;6.912;2023-06-22T01:11:37;21.50;99.90
15257;DHT22;7731;50.720;6.912;2023-06-22T01:14:18;21.60;99.90
15257;DHT22;7731;50.720;6.912;2023-06-22T01:17:02;21.50;99.90
15257;DHT22;7731;50.720;6.912;2023-06-22T01:19:39;21.50;99.90
15257;DHT22;7731;50.720;6.912;2023-06-22T01:22:16;21.50;99.90
15257;DHT22;7731;50.720;6.912;2023-06-22T01:24:57;21.60;99.90
15257;DHT22;7731;50.720;6.912;2023-06-22T01:27:46;21.80;99.90
15257;DHT22;7731;50.720;6.912;2023-06-22T01:30:35;21.80;99.90
15257;DHT22;7731;50.720;6.912;2023-06-22T01:33:07;21.90;99.90
15257;DHT22;7731;50.720;6.912;2023-06-22T01:35:42;21.60;99.90
15257;DHT22;7731;50.720;6.912;2023-06-22T01:38:20;21.50;99.90
15257;DHT22;7731;50.720;6.912;2023-06-22T01:40:51;21.50;99.90
15257;DHT22;7731;50.720;6.912;2023-06-22T01:43:22;21.40;99.90
15257;DHT22;7731;50.720;6.912;2023-06-22T01:46:01;21.30;99.90
15257;DHT22;7731;50.720;6.912;2023-06-22T01:48:32;21.20;99.90
15257;DHT22;7731;50.720;6.912;2023-06-22T01:51:03;21.20;99.90
15257;DHT22;7731;50.720;6.912;2023-06-22T01:53:34;21.20;99.90
15257;DHT22;7731;50.720;6.912;2023-06-22T01:56:04;21.20;99.90
15257;DHT22;7731;50.720;6.912;2023-06-22T01:58:38;21.20;99.90
15257;DHT22;7731;50.720;6.912;2023-06-22T02:01:30;21.20;99.90
15257;DHT22;7731;50.720;6.912;2023-06-22T02:04:12;21.20;99.90
15257;DHT22;7731;50.720;6.912;2023-06-22T02:06:52;21.30;99.90
15257;DHT22;7731;50.720;6.912;2023-06-22T02:09:30;21.30;99.90
15257;DHT22;7731;50.720;6.912;2023-06-22T02:12:04;21.20;99.90
15257;DHT22;7731;50.720;6.912;2023-06-22T02:14:36;21.20;99.90
15257;DHT22;7731;50.720;6.912;2023-06-22T02:17:10;21.20;99.90
15257;DHT22;7731;50.720;6.912;2023-06-22T02:19:41;21.20;99.90
15257;DHT22;7731;50.720;6.912;2023-06-22T02:22:21;21.10;99.90
15257;DHT22;7731;50.720;6.912;2023-06-22T02:24:52;21.00;99.90
15257;DHT22;7731;50.720;6.912;2023-06-22T02:27:25;21.10;99.90
15257;DHT22;7731;50.720;6.912;2023-06-22T02:29:56;21.10;99.90
15257;DHT22;7731;50.720;6.912;2023-06-22T02:32:29;21.00;99.90
15257;DHT22;7731;50.720;6.912;2023-06-22T02:35:08;21.10;99.90
15257;DHT22;7731;50.720;6.912;2023-06-22T02:37:38;21.10;99.90
15257;DHT22;7731;50.720;6.912;2023-06-22T02:40:09;21.20;99.90
15257;DHT22;7731;50.720;6.912;2023-06-22T02:42:40;21.20;99.90
15257;DHT22;7731;50.720;6.912;2023-06-22T02:45:10;21.20;99.90
15257;DHT22;7731;50.720;6.912;2023-06-22T02:47:43;21.20;99.90
15257;DHT22;7731;50.720;6.912;2023-06-22T02:50:14;21.20;99.90
15257;DHT22;7731;50.720;6.912;2023-06-22T02:52:45;21.20;99.90
15257;DHT22;7731;50.720;6.912;2023-06-22T02:55:21;21.10;99.90
15257;DHT22;7731;50.720;6.912;2023-06-22T02:57:52;21.20;99.90
15257;DHT22;7731;50.720;6.912;2023-06-22T03:00:22;21.10;99.90
15257;DHT22;7731;50.720;6.912;2023-06-22T03:03:00;21.20;99.90
15257;DHT22;7731;50.720;6.912;2023-06-22T03:05:33;21.10;99.90
15257;DHT22;7731;50.720;6.912;2023-06-22T03:08:04;21.00;99.90
15257;DHT22;7731;50.720;6.912;2023-06-22T03:10:35;20.90;99.90
15257;DHT22;7731;50.720;6.912;2023-06-22T03:13:05;20.70;99.90
15257;DHT22;7731;50.720;6.912;2023-06-22T03:15:35;20.80;99.90
15257;DHT22;7731;50.720;6.912;2023-06-22T03:18:08;20.70;99.90
15257;DHT22;7731;50.720;6.912;2023-06-22T03:20:39;20.70;99.90
15257;DHT22;7731;50.720;6.912;2023-06-22T03:23:09;20.70;99.90
15257;DHT22;7731;50.720;6.912;2023-06-22T03:25:42;20.80;99.90
15257;DHT22;7731;50.720;6.912;2023-06-22T03:28:15;20.90;99.90
15257;DHT22;7731;50.720;6.912;2023-06-22T03:30:48;21.00;99.90
15257;DHT22;7731;50.720;6.912;2023-06-22T03:33:21;21.00;99.90
15257;DHT22;7731;50.720;6.912;2023-06-22T03:35:51;21.00;99.90
15257;DHT22;7731;50.720;6.912;2023-06-22T03:38:24;20.90;99.90
15257;DHT22;7731;50.720;6.912;2023-06-22T03:40:58;20.90;99.90
15257;DHT22;7731;50.720;6.912;2023-06-22T03:43:31;20.70;99.90
15257;DHT22;7731;50.720;6.912;2023-06-22T03:46:02;20.70;99.90
15257;DHT22;7731;50.720;6.912;2023-06-22T03:48:35;20.70;99.90
15257;DHT22;7731;50.720;6.912;2023-06-22T03:51:08;20.60;99.90
15257;DHT22;7731;50.720;6.912;2023-06-22T03:53:38;20.70;99.90
15257;DHT22;7731;50.720;6.912;2023-06-22T03:56:09;20.80;99.90
15257;DHT22;7731;50.720;6.912;2023-06-22T03:58:39;21.10;99.90
15257;DHT22;7731;50.720;6.912;2023-06-22T04:01:12;21.10;99.90
15257;DHT22;7731;50.720;6.912;2023-06-22T04:03:46;21.00;99.90
15257;DHT22;7731;50.720;6.912;2023-06-22T04:06:17;20.90;99.90
15257;DHT22;7731;50.720;6.912;2023-06-22T04:08:50;20.90;99.90
15257;DHT22;7731;50.720;6.912;2023-06-22T04:11:20;20.90;99.90
15257;DHT22;7731;50.720;6.912;2023-06-22T04:13:57;21.00;99.90
15257;DHT22;7731;50.720;6.912;2023-06-22T04:16:30;21.20;99.90
15257;DHT22;7731;50.720;6.912;2023-06-22T04:19:05;21.30;99.90
15257;DHT22;7731;50.720;6.912;2023-06-22T04:21:41;21.40;99.90
15257;DHT22;7731;50.720;6.912;2023-06-22T04:24:11;21.50;99.90
15257;DHT22;7731;50.720;6.912;2023-06-22T04:26:41;21.50;99.90
15257;DHT22;7731;50.720;6.912;2023-06-22T04:29:14;21.30;99.90
15257;DHT22;7731;50.720;6.912;2023-06-22T04:31:56;21.20;99.90
15257;DHT22;7731;50.720;6.912;2023-06-22T04:34:32;21.00;99.90
15257;DHT22;7731;50.720;6.912;2023-06-22T04:37:03;20.80;99.90
15257;DHT22;7731;50.720;6.912;2023-06-22T04:39:34;20.70;99.90
15257;DHT22;7731;50.720;6.912;2023-06-22T04:42:05;20.80;99.90
15257;DHT22;7731;50.720;6.912;2023-06-22T04:44:35;20.80;99.90
15257;DHT22;7731;50.720;6.912;2023-06-22T04:47:07;20.90;99.90
15257;DHT22;7731;50.720;6.912;2023-06-22T04:49:40;20.80;99.90
15257;DHT22;7731;50.720;6.912;2023-06-22T04:52:12;20.80;99.90
15257;DHT22;7731;50.720;6.912;2023-06-22T04:54:47;20.90;99.90
15257;DHT22;7731;50.720;6.912;2023-06-22T04:57:22;21.10;99.90
15257;DHT22;7731;50.720;6.912;2023-06-22T05:00:03;21.30;99.90
15257;DHT22;7731;50.720;6.912;2023-06-22T05:02:44;21.50;99.90
15257;DHT22;7731;50.720;6.912;2023-06-22T05:05:32;21.50;99.90
15257;DHT22;7731;50.720;6.912;2023-06-22T05:08:03;21.70;99.90
15257;DHT22;7731;50.720;6.912;2023-06-22T05:10:36;21.80;99.90
15257;DHT22;7731;50.720;6.912;2023-06-22T05:13:22;22.10;99.90
15257;DHT22;7731;50.720;6.912;2023-06-22T05:15:54;22.60;99.90
15257;DHT22;7731;50.720;6.912;2023-06-22T05:18:28;23.00;99.90
15257;DHT22;7731;50.720;6.912;2023-06-22T05:21:04;23.10;99.90
15257;DHT22;7731;50.720;6.912;2023-06-22T05:23:35;23.90;99.90
15257;DHT22;7731;50.720;6.912;2023-06-22T05:26:05;24.90;46.80
15257;DHT22;7731;50.720;6.912;2023-06-22T05:28:36;25.80;1.00
15257;DHT22;7731;50.720;6.912;2023-06-22T05:31:13;26.70;1.00
15257;DHT22;7731;50.720;6.912;2023-06-22T05:33:48;27.10;1.00
15257;DHT22;7731;50.720;6.912;2023-06-22T05:36:27;26.60;1.00
15257;DHT22;7731;50.720;6.912;2023-06-22T05:39:11;25.30;1.00
15257;DHT22;7731;50.720;6.912;2023-06-22T05:41:45;24.50;77.30
15257;DHT22;7731;50.720;6.912;2023-06-22T05:44:16;24.10;99.90
15257;DHT22;7731;50.720;6.912;2023-06-22T05:46:55;23.90;99.90
15257;DHT22;7731;50.720;6.912;2023-06-22T05:49:26;23.40;99.90
15257;DHT22;7731;50.720;6.912;2023-06-22T05:52:03;23.30;99.90
15257;DHT22;7731;50.720;6.912;2023-06-22T05:54:41;23.30;99.90
15257;DHT22;7731;50.720;6.912;2023-06-22T05:57:11;23.40;99.90
15257;DHT22;7731;50.720;6.912;2023-06-22T05:59:42;23.40;99.90
15257;DHT22;7731;50.720;6.912;2023-06-22T06:02:12;23.30;99.90
15257;DHT22;7731;50.720;6.912;2023-06-22T06:04:42;23.30;99.90
15257;DHT22;7731;50.720;6.912;2023-06-22T06:07:15;23.10;99.90
15257;DHT22;7731;50.720;6.912;2023-06-22T06:09:46;23.20;99.90
15257;DHT22;7731;50.720;6.912;2023-06-22T06:12:19;23.20;99.90
15257;DHT22;7731;50.720;6.912;2023-06-22T06:14:49;23.40;99.90
15257;DHT22;7731;50.720;6.912;2023-06-22T06:17:28;23.60;99.90
15257;DHT22;7731;50.720;6.912;2023-06-22T06:19:59;23.60;99.90
15257;DHT22;7731;50.720;6.912;2023-06-22T06:22:38;23.60;99.90
15257;DHT22;7731;50.720;6.912;2023-06-22T06:25:11;23.80;99.90
15257;DHT22;7731;50.720;6.912;2023-06-22T06:27:46;23.80;99.90
15257;DHT22;7731;50.720;6.912;2023-06-22T06:30:18;23.60;99.90
15257;DHT22;7731;50.720;6.912;2023-06-22T06:32:49;23.50;99.90
15257;DHT22;7731;50.720;6.912;2023-06-22T06:35:23;23.50;99.90
15257;DHT22;7731;50.720;6.912;2023-06-22T06:37:59;23.50;99.90
15257;DHT22;7731;50.720;6.912;2023-06-22T06:40:30;23.40;99.90
15257;DHT22;7731;50.720;6.912;2023-06-22T06:43:12;23.40;99.90
15257;DHT22;7731;50.720;6.912;2023-06-22T06:45:42;23.60;99.90
15257;DHT22;7731;50.720;6.912;2023-06-22T06:48:14;24.00;99.40
15257;DHT22;7731;50.720;6.912;2023-06-22T06:51:00;24.60;38.70
15257;DHT22;7731;50.720;6.912;2023-06-22T06:53:36;25.00;3.70
15257;DHT22;7731;50.720;6.912;2023-06-22T06:56:07;26.20;1.00
15257;DHT22;7731;50.720;6.912;2023-06-22T06:58:40;26.80;1.00
15257;DHT22;7731;50.720;6.912;2023-06-22T07:01:13;27.00;1.00
15257;DHT22;7731;50.720;6.912;2023-06-22T07:03:45;26.60;1.00
15257;DHT22;7731;50.720;6.912;2023-06-22T07:06:15;26.70;1.00
15257;DHT22;7731;50.720;6.912;2023-06-22T07:08:59;26.60;1.00
15257;DHT22;7731;50.720;6.912;2023-06-22T07:11:30;26.40;1.00
15257;DHT22;7731;50.720;6.912;2023-06-22T07:14:08;26.40;1.00
15257;DHT22;7731;50.720;6.912;2023-06-22T07:16:48;26.60;1.00
15257;DHT22;7731;50.720;6.912;2023-06-22T07:19:24;26.70;1.00
15257;DHT22;7731;50.720;6.912;2023-06-22T07:21:55;26.50;1.00
15257;DHT22;7731;50.720;6.912;2023-06-22T07:24:30;26.00;1.00
15257;DHT22;7731;50.720;6.912;2023-06-22T07:27:01;26.10;1.00
15257;DHT22;7731;50.720;6.912;2023-06-22T07:29:36;26.60;1.00
15257;DHT22;7731;50.720;6.912;2023-06-22T07:32:10;27.80;1.00
15257;DHT22;7731;50.720;6.912;2023-06-22T07:34:49;29.30;99.90
15257;DHT22;7731;50.720;6.912;2023-06-22T07:37:20;29.10;99.90
15257;DHT22;7731;50.720;6.912;2023-06-22T07:39:53;30.20;99.90
15257;DHT22;7731;50.720;6.912;2023-06-22T07:42:28;30.70;1.00
15257;DHT22;7731;50.720;6.912;2023-06-22T07:45:03;30.30;1.00
15257;DHT22;7731;50.720;6.912;2023-06-22T07:47:35;30.80;99.90
15257;DHT22;7731;50.720;6.912;2023-06-22T07:50:06;31.00;1.00
15257;DHT22;7731;50.720;6.912;2023-06-22T07:52:37;32.70;97.30
15257;DHT22;7731;50.720;6.912;2023-06-22T07:55:10;35.00;99.90
15257;DHT22;7731;50.720;6.912;2023-06-22T07:57:43;35.50;1.00
15257;DHT22;7731;50.720;6.912;2023-06-22T08:00:14;35.90;1.00
15257;DHT22;7731;50.720;6.912;2023-06-22T08:02:46;36.30;1.00
15257;DHT22;7731;50.720;6.912;2023-06-22T08:05:17;34.60;1.00
15257;DHT22;7731;50.720;6.912;2023-06-22T08:07:50;35.40;1.00
15257;DHT22;7731;50.720;6.912;2023-06-22T08:10:25;37.20;1.00
15257;DHT22;7731;50.720;6.912;2023-06-22T08:12:56;37.70;1.00
15257;DHT22;7731;50.720;6.912;2023-06-22T08:15:26;38.70;1.00
15257;DHT22;7731;50.720;6.912;2023-06-22T08:17:57;38.10;1.00
15257;DHT22;7731;50.720;6.912;2023-06-22T08:20:28;37.50;1.00
15257;DHT22;7731;50.720;6.912;2023-06-22T08:22:58;38.10;1.00
15257;DHT22;7731;50.720;6.912;2023-06-22T08:25:38;37.90;1.00
15257;DHT22;7731;50.720;6.912;2023-06-22T08:28:09;36.60;1.00
15257;DHT22;7731;50.720;6.912;2023-06-22T08:30:40;36.30;1.00
15257;DHT22;7731;50.720;6.912;2023-06-22T08:33:10;36.20;1.00
15257;DHT22;7731;50.720;6.912;2023-06-22T08:35:48;35.50;1.00
15257;DHT22;7731;50.720;6.912;2023-06-22T08:38:19;35.90;1.00
15257;DHT22;7731;50.720;6.912;2023-06-22T08:40:52;35.50;1.00
15257;DHT22;7731;50.720;6.912;2023-06-22T08:43:22;34.50;1.00
15257;DHT22;7731;50.720;6.912;2023-06-22T08:45:53;33.60;1.00
15257;DHT22;7731;50.720;6.912;2023-06-22T08:48:25;32.70;99.90
15257;DHT22;7731;50.720;6.912;2023-06-22T08:50:58;32.10;1.00
15257;DHT22;7731;50.720;6.912;2023-06-22T08:53:29;31.90;1.00
15257;DHT22;7731;50.720;6.912;2023-06-22T08:56:05;31.20;99.90
15257;DHT22;7731;50.720;6.912;2023-06-22T08:58:43;30.90;99.90
15257;DHT22;7731;50.720;6.912;2023-06-22T09:01:13;31.10;99.90
15257;DHT22;7731;50.720;6.912;2023-06-22T09:03:44;31.20;1.00
15257;DHT22;7731;50.720;6.912;2023-06-22T09:06:21;31.30;99.90
15257;DHT22;7731;50.720;6.912;2023-06-22T09:08:55;31.30;1.00
15257;DHT22;7731;50.720;6.912;2023-06-22T09:11:29;31.30;1.00
15257;DHT22;7731;50.720;6.912;2023-06-22T09:13:59;30.60;1.00
15257;DHT22;7731;50.720;6.912;2023-06-22T09:16:30;30.50;1.00
15257;DHT22;7731;50.720;6.912;2023-06-22T09:19:01;31.30;1.00
15257;DHT22;7731;50.720;6.912;2023-06-22T09:21:32;31.70;1.00
15257;DHT22;7731;50.720;6.912;2023-06-22T09:24:02;32.70;1.00
15257;DHT22;7731;50.720;6.912;2023-06-22T09:26:36;33.80;1.00
15257;DHT22;7731;50.720;6.912;2023-06-22T09:29:09;34.70;99.90
15257;DHT22;7731;50.720;6.912;2023-06-22T09:31:39;35.20;99.90
15257;DHT22;7731;50.720;6.912;2023-06-22T09:34:11;35.10;82.80
15257;DHT22;7731;50.720;6.912;2023-06-22T09:36:41;35.10;37.00
15257;DHT22;7731;50.720;6.912;2023-06-22T09:39:12;34.50;48.30
15257;DHT22;7731;50.720;6.912;2023-06-22T09:41:45;33.40;99.90
15257;DHT22;7731;50.720;6.912;2023-06-22T09:44:15;32.40;1.00
15257;DHT22;7731;50.720;6.912;2023-06-22T09:46:48;31.70;1.00
15257;DHT22;7731;50.720;6.912;2023-06-22T09:49:19;30.90;1.00
15257;DHT22;7731;50.720;6.912;2023-06-22T09:52:09;30.00;1.00
15257;DHT22;7731;50.720;6.912;2023-06-22T09:54:40;29.30;1.00
15257;DHT22;7731;50.720;6.912;2023-06-22T09:57:13;29.00;99.90
15257;DHT22;7731;50.720;6.912;2023-06-22T09:59:43;28.50;1.00
15257;DHT22;7731;50.720;6.912;2023-06-22T10:02:23;28.20;1.00
15257;DHT22;7731;50.720;6.912;2023-06-22T10:04:54;27.80;1.00
15257;DHT22;7731;50.720;6.912;2023-06-22T10:07:30;27.50;1.00
15257;DHT22;7731;50.720;6.912;2023-06-22T10:10:03;27.30;13.90
15257;DHT22;7731;50.720;6.912;2023-06-22T10:12:54;27.10;50.70
15257;DHT22;7731;50.720;6.912;2023-06-22T10:15:25;26.90;45.30
15257;DHT22;7731;50.720;6.912;2023-06-22T10:17:56;26.60;99.90
15257;DHT22;7731;50.720;6.912;2023-06-22T10:20:26;26.60;99.90
15257;DHT22;7731;50.720;6.912;2023-06-22T10:22:57;26.50;99.90
15257;DHT22;7731;50.720;6.912;2023-06-22T10:25:27;26.40;99.90
15257;DHT22;7731;50.720;6.912;2023-06-22T10:28:04;26.30;99.90
15257;DHT22;7731;50.720;6.912;2023-06-22T10:30:34;26.00;99.90
15257;DHT22;7731;50.720;6.912;2023-06-22T10:33:17;25.90;99.90
15257;DHT22;7731;50.720;6.912;2023-06-22T10:35:47;25.70;99.90
15257;DHT22;7731;50.720;6.912;2023-06-22T10:38:17;25.70;99.90
15257;DHT22;7731;50.720;6.912;2023-06-22T10:40:50;25.70;99.90
15257;DHT22;7731;50.720;6.912;2023-06-22T10:43:26;25.60;99.90
15257;DHT22;7731;50.720;6.912;2023-06-22T10:45:56;25.50;99.90
15257;DHT22;7731;50.720;6.912;2023-06-22T10:48:27;25.30;99.90
15257;DHT22;7731;50.720;6.912;2023-06-22T10:51:00;25.00;99.90
15257;DHT22;7731;50.720;6.912;2023-06-22T10:53:31;24.50;99.90
15257;DHT22;7731;50.720;6.912;2023-06-22T10:56:04;24.40;99.90
15257;DHT22;7731;50.720;6.912;2023-06-22T10:58:46;24.40;99.90
15257;DHT22;7731;50.720;6.912;2023-06-22T11:01:16;24.20;99.90
15257;DHT22;7731;50.720;6.912;2023-06-22T11:04:01;24.40;99.90
15257;DHT22;7731;50.720;6.912;2023-06-22T11:06:32;24.70;99.90
15257;DHT22;7731;50.720;6.912;2023-06-22T11:09:02;24.60;99.90
15257;DHT22;7731;50.720;6.912;2023-06-22T11:11:47;24.50;99.90
15257;DHT22;7731;50.720;6.912;2023-06-22T11:14:23;24.60;99.90
15257;DHT22;7731;50.720;6.912;2023-06-22T11:16:53;25.00;99.90
15257;DHT22;7731;50.720;6.912;2023-06-22T11:19:23;25.20;99.90
15257;DHT22;7731;50.720;6.912;2023-06-22T11:21:54;25.10;99.90
15257;DHT22;7731;50.720;6.912;2023-06-22T11:24:31;25.20;99.90
15257;DHT22;7731;50.720;6.912;2023-06-22T11:27:05;25.30;99.90
15257;DHT22;7731;50.720;6.912;2023-06-22T11:29:39;25.40;99.90
15257;DHT22;7731;50.720;6.912;2023-06-22T11:32:09;25.70;99.90
15257;DHT22;7731;50.720;6.912;2023-06-22T11:34:43;26.30;99.90
15257;DHT22;7731;50.720;6.912;2023-06-22T11:37:14;26.90;99.90
15257;DHT22;7731;50.720;6.912;2023-06-22T11:39:47;28.10;99.90
15257;DHT22;7731;50.720;6.912;2023-06-22T11:42:35;28.80;96.30
15257;DHT22;7731;50.720;6.912;2023-06-22T11:45:11;29.10;57.90
15257;DHT22;7731;50.720;6.912;2023-06-22T11:47:41;29.10;24.90
15257;DHT22;7731;50.720;6.912;2023-06-22T11:50:12;29.30;9.20
15257;DHT22;7731;50.720;6.912;2023-06-22T11:52:51;29.20;36.00
15257;DHT22;7731;50.720;6.912;2023-06-22T11:55:21;28.70;99.90
15257;DHT22;7731;50.720;6.912;2023-06-22T11:57:54;27.80;83.30
15257;DHT22;7731;50.720;6.912;2023-06-22T12:00:35;27.40;99.90
15257;DHT22;7731;50.720;6.912;2023-06-22T12:03:17;27.30;99.90
15257;DHT22;7731;50.720;6.912;2023-06-22T12:05:50;27.40;99.90
15257;DHT22;7731;50.720;6.912;2023-06-22T12:08:21;27.30;99.90
15257;DHT22;7731;50.720;6.912;2023-06-22T12:10:51;27.10;99.90
15257;DHT22;7731;50.720;6.912;2023-06-22T12:13:26;26.80;99.90
15257;DHT22;7731;50.720;6.912;2023-06-22T12:15:59;26.50;99.90
15257;DHT22;7731;50.720;6.912;2023-06-22T12:18:29;26.30;99.90
15257;DHT22;7731;50.720;6.912;2023-06-22T12:21:00;26.40;99.90
15257;DHT22;7731;50.720;6.912;2023-06-22T12:23:34;26.80;99.90
15257;DHT22;7731;50.720;6.912;2023-06-22T12:26:04;27.30;99.90
15257;DHT22;7731;50.720;6.912;2023-06-22T12:28:37;27.70;99.90
15257;DHT22;7731;50.720;6.912;2023-06-22T12:31:13;28.10;90.40
15257;DHT22;7731;50.720;6.912;2023-06-22T12:33:44;28.30;24.10
15257;DHT22;7731;50.720;6.912;2023-06-22T12:36:17;28.20;38.30
15257;DHT22;7731;50.720;6.912;2023-06-22T12:38:47;28.50;18.20
15257;DHT22;7731;50.720;6.912;2023-06-22T12:41:20;28.60;8.70
15257;DHT22;7731;50.720;6.912;2023-06-22T12:43:50;28.70;1.00
15257;DHT22;7731;50.720;6.912;2023-06-22T12:46:26;28.60;1.00
15257;DHT22;7731;50.720;6.912;2023-06-22T12:48:57;28.50;1.00
15257;DHT22;7731;50.720;6.912;2023-06-22T12:51:28;28.70;1.00
15257;DHT22;7731;50.720;6.912;2023-06-22T12:54:01;28.70;1.00
15257;DHT22;7731;50.720;6.912;2023-06-22T12:56:35;28.90;1.00
15257;DHT22;7731;50.720;6.912;2023-06-22T12:59:11;29.10;1.00
15257;DHT22;7731;50.720;6.912;2023-06-22T13:01:46;29.20;1.00
15257;DHT22;7731;50.720;6.912;2023-06-22T13:04:17;28.70;1.00
15257;DHT22;7731;50.720;6.912;2023-06-22T13:06:48;28.20;1.00
15257;DHT22;7731;50.720;6.912;2023-06-22T13:09:19;27.90;1.00
15257;DHT22;7731;50.720;6.912;2023-06-22T13:11:52;27.90;1.00
15257;DHT22;7731;50.720;6.912;2023-06-22T13:14:23;28.10;1.00
15257;DHT22;7731;50.720;6.912;2023-06-22T13:16:56;28.30;1.00
15257;DHT22;7731;50.720;6.912;2023-06-22T13:19:26;28.20;1.00
15257;DHT22;7731;50.720;6.912;2023-06-22T13:21:59;28.00;1.00
15257;DHT22;7731;50.720;6.912;2023-06-22T13:24:30;27.90;1.00
15257;DHT22;7731;50.720;6.912;2023-06-22T13:27:05;27.80;1.00
15257;DHT22;7731;50.720;6.912;2023-06-22T13:29:35;28.10;1.00
15257;DHT22;7731;50.720;6.912;2023-06-22T13:32:08;28.30;1.00
15257;DHT22;7731;50.720;6.912;2023-06-22T13:34:44;28.40;1.00
15257;DHT22;7731;50.720;6.912;2023-06-22T13:37:15;28.70;1.00
15257;DHT22;7731;50.720;6.912;2023-06-22T13:39:45;28.40;1.00
15257;DHT22;7731;50.720;6.912;2023-06-22T13:42:15;28.20;1.00
15257;DHT22;7731;50.720;6.912;2023-06-22T13:44:46;28.10;1.00
15257;DHT22;7731;50.720;6.912;2023-06-22T13:47:19;28.30;1.00
15257;DHT22;7731;50.720;6.912;2023-06-22T13:49:52;28.60;1.00
15257;DHT22;7731;50.720;6.912;2023-06-22T13:52:22;28.50;1.00
15257;DHT22;7731;50.720;6.912;2023-06-22T13:54:52;28.30;1.00
15257;DHT22;7731;50.720;6.912;2023-06-22T13:57:25;28.20;1.00
15257;DHT22;7731;50.720;6.912;2023-06-22T13:59:55;28.30;1.00
15257;DHT22;7731;50.720;6.912;2023-06-22T14:02:28;28.10;1.00
15257;DHT22;7731;50.720;6.912;2023-06-22T14:04:59;27.90;1.00
15257;DHT22;7731;50.720;6.912;2023-06-22T14:07:29;27.60;1.00
15257;DHT22;7731;50.720;6.912;2023-06-22T14:10:02;27.20;1.00
15257;DHT22;7731;50.720;6.912;2023-06-22T14:12:33;27.00;1.00
15257;DHT22;7731;50.720;6.912;2023-06-22T14:15:04;26.70;54.00
15257;DHT22;7731;50.720;6.912;2023-06-22T14:17:38;26.60;37.20
15257;DHT22;7731;50.720;6.912;2023-06-22T14:20:09;26.50;93.90
15257;DHT22;7731;50.720;6.912;2023-06-22T14:22:43;26.40;99.90
15257;DHT22;7731;50.720;6.912;2023-06-22T14:25:13;26.20;99.90
15257;DHT22;7731;50.720;6.912;2023-06-22T14:27:43;26.10;99.90
15257;DHT22;7731;50.720;6.912;2023-06-22T14:30:14;25.90;99.90
15257;DHT22;7731;50.720;6.912;2023-06-22T14:32:47;25.70;99.90
15257;DHT22;7731;50.720;6.912;2023-06-22T14:35:17;25.70;99.90
15257;DHT22;7731;50.720;6.912;2023-06-22T14:37:48;25.60;99.90
15257;DHT22;7731;50.720;6.912;2023-06-22T14:40:18;25.60;99.90
15257;DHT22;7731;50.720;6.912;2023-06-22T14:42:52;25.60;99.90
15257;DHT22;7731;50.720;6.912;2023-06-22T14:45:23;25.50;99.90
15257;DHT22;7731;50.720;6.912;2023-06-22T14:47:56;25.30;99.90
15257;DHT22;7731;50.720;6.912;2023-06-22T14:50:29;25.20;99.90
15257;DHT22;7731;50.720;6.912;2023-06-22T14:52:59;25.10;99.90
15257;DHT22;7731;50.720;6.912;2023-06-22T14:55:30;25.00;99.90
15257;DHT22;7731;50.720;6.912;2023-06-22T14:58:10;24.70;99.90
15257;DHT22;7731;50.720;6.912;2023-06-22T15:00:40;24.50;99.90
15257;DHT22;7731;50.720;6.912;2023-06-22T15:03:18;24.10;99.90
15257;DHT22;7731;50.720;6.912;2023-06-22T15:05:52;23.70;99.90
15257;DHT22;7731;50.720;6.912;2023-06-22T15:08:23;23.30;99.90
15257;DHT22;7731;50.720;6.912;2023-06-22T15:10:54;22.80;99.90
15257;DHT22;7731;50.720;6.912;2023-06-22T15:13:30;22.60;99.90
15257;DHT22;7731;50.720;6.912;2023-06-22T15:16:02;22.50;99.90
15257;DHT22;7731;50.720;6.912;2023-06-22T15:18:37;22.40;99.90
15257;DHT22;7731;50.720;6.912;2023-06-22T15:21:08;22.40;99.90
15257;DHT22;7731;50.720;6.912;2023-06-22T15:23:41;22.40;99.90
15257;DHT22;7731;50.720;6.912;2023-06-22T15:26:14;22.30;99.90
15257;DHT22;7731;50.720;6.912;2023-06-22T15:28:45;22.20;99.90
15257;DHT22;7731;50.720;6.912;2023-06-22T15:31:15;22.00;99.90
15257;DHT22;7731;50.720;6.912;2023-06-22T15:33:50;21.90;99.90
15257;DHT22;7731;50.720;6.912;2023-06-22T15:36:21;21.80;99.90
15257;DHT22;7731;50.720;6.912;2023-06-22T15:38:54;21.70;99.90
15257;DHT22;7731;50.720;6.912;2023-06-22T15:41:24;21.70;99.90
15257;DHT22;7731;50.720;6.912;2023-06-22T15:43:55;21.60;99.90
15257;DHT22;7731;50.720;6.912;2023-06-22T15:46:26;21.60;99.90
15257;DHT22;7731;50.720;6.912;2023-06-22T15:49:04;21.60;99.90
15257;DHT22;7731;50.720;6.912;2023-06-22T15:51:34;21.70;99.90
15257;DHT22;7731;50.720;6.912;2023-06-22T15:57:37;21.80;99.90
15257;DHT22;7731;50.720;6.912;2023-06-22T16:00:09;21.80;99.90
15257;DHT22;7731;50.720;6.912;2023-06-22T16:06:25;21.70;99.90
15257;DHT22;7731;50.720;6.912;2023-06-22T16:08:55;21.70;99.90
15257;DHT22;7731;50.720;6.912;2023-06-22T16:11:25;21.80;99.90
15257;DHT22;7731;50.720;6.912;2023-06-22T16:13:56;21.80;99.90
15257;DHT22;7731;50.720;6.912;2023-06-22T16:16:26;21.80;99.90
15257;DHT22;7731;50.720;6.912;2023-06-22T16:18:59;21.90;99.90
15257;DHT22;7731;50.720;6.912;2023-06-22T16:21:34;22.00;99.90
15257;DHT22;7731;50.720;6.912;2023-06-22T16:24:14;22.10;99.90
15257;DHT22;7731;50.720;6.912;2023-06-22T16:26:44;22.20;99.90
15257;DHT22;7731;50.720;6.912;2023-06-22T16:29:15;22.30;99.90
15257;DHT22;7731;50.720;6.912;2023-06-22T16:31:48;22.50;99.90
15257;DHT22;7731;50.720;6.912;2023-06-22T16:34:18;22.70;99.90
15257;DHT22;7731;50.720;6.912;2023-06-22T16:36:51;22.70;99.90